createdAt,value
2022-07-30T00:01:23.000Z,287.65
2022-07-30T00:03:29.000Z,287.52
2022-07-30T00:04:56.000Z,287.52
2022-07-30T00:07:02.000Z,287.65
2022-07-30T00:09:54.000Z,287.84
2022-07-30T00:11:20.000Z,287.9
2022-07-30T00:13:31.000Z,287.96
2022-07-30T00:14:58.000Z,287.84
2022-07-30T00:17:04.000Z,287.65
2022-07-30T00:18:31.000Z,287.52
2022-07-30T00:20:38.000Z,287.65
2022-07-30T00:22:08.000Z,287.77
2022-07-30T00:24:14.000Z,287.59
2022-07-30T00:25:41.000Z,287.59
2022-07-30T00:27:47.000Z,287.4
2022-07-30T00:29:14.000Z,287.59
2022-07-30T00:31:20.000Z,287.59
2022-07-30T00:32:46.000Z,287.65
2022-07-30T00:34:52.000Z,287.71
2022-07-30T00:36:19.000Z,287.77
2022-07-30T00:38:25.000Z,287.77
2022-07-30T00:39:52.000Z,287.77
2022-07-30T00:41:58.000Z,287.77
2022-07-30T00:43:24.000Z,287.77
2022-07-30T00:45:30.000Z,287.77
2022-07-30T00:48:22.000Z,287.9
2022-07-30T00:49:48.000Z,287.9
2022-07-30T00:51:54.000Z,287.9
2022-07-30T00:53:21.000Z,287.96
2022-07-30T00:55:27.000Z,287.65
2022-07-30T00:56:53.000Z,287.52
2022-07-30T00:59:00.000Z,287.46
2022-07-30T01:00:26.000Z,287.59
2022-07-30T01:02:32.000Z,287.71
2022-07-30T01:03:59.000Z,287.71
2022-07-30T01:06:05.000Z,287.84
2022-07-30T01:07:38.000Z,287.77
2022-07-30T01:09:44.000Z,287.65
2022-07-30T01:11:13.000Z,287.52
2022-07-30T01:13:19.000Z,287.52
2022-07-30T01:14:45.000Z,287.59
2022-07-30T01:16:51.000Z,287.59
2022-07-30T01:18:18.000Z,287.71
2022-07-30T01:20:24.000Z,287.77
2022-07-30T01:21:51.000Z,287.71
2022-07-30T01:23:57.000Z,287.71
2022-07-30T01:26:48.000Z,287.59
2022-07-30T01:28:15.000Z,287.59
2022-07-30T01:30:22.000Z,287.59
2022-07-30T01:31:49.000Z,287.52
2022-07-30T01:33:55.000Z,287.52
2022-07-30T01:35:22.000Z,287.59
2022-07-30T01:37:28.000Z,287.59
2022-07-30T01:38:55.000Z,287.65
2022-07-30T01:41:01.000Z,287.52
2022-07-30T01:42:28.000Z,287.46
2022-07-30T01:44:34.000Z,287.46
2022-07-30T01:46:00.000Z,287.27
2022-07-30T01:48:07.000Z,287.21
2022-07-30T01:49:33.000Z,287.4
2022-07-30T01:51:39.000Z,287.46
2022-07-30T01:53:06.000Z,287.46
2022-07-30T01:55:12.000Z,287.65
2022-07-30T01:56:41.000Z,287.65
2022-07-30T01:58:48.000Z,287.52
2022-07-30T02:00:14.000Z,287.46
2022-07-30T02:02:20.000Z,287.4
2022-07-30T02:05:12.000Z,287.4
2022-07-30T02:06:38.000Z,287.52
2022-07-30T02:08:44.000Z,287.46
2022-07-30T02:10:11.000Z,287.52
2022-07-30T02:12:17.000Z,287.59
2022-07-30T02:13:43.000Z,287.59
2022-07-30T02:15:49.000Z,287.46
2022-07-30T02:17:16.000Z,287.4
2022-07-30T02:19:23.000Z,287.4
2022-07-30T02:20:57.000Z,287.4
2022-07-30T02:23:03.000Z,287.27
2022-07-30T02:24:29.000Z,287.27
2022-07-30T02:26:36.000Z,287.34
2022-07-30T02:28:02.000Z,287.46
2022-07-30T02:30:08.000Z,287.46
2022-07-30T02:31:35.000Z,287.65
2022-07-30T02:33:41.000Z,287.77
2022-07-30T02:35:13.000Z,287.77
2022-07-30T02:37:19.000Z,287.77
2022-07-30T02:39:08.000Z,287.77
2022-07-30T02:41:14.000Z,287.59
2022-07-30T02:44:06.000Z,287.34
2022-07-30T02:45:32.000Z,287.4
2022-07-30T02:47:38.000Z,287.27
2022-07-30T02:49:05.000Z,287.27
2022-07-30T02:51:11.000Z,287.34
2022-07-30T02:52:38.000Z,287.46
2022-07-30T02:54:44.000Z,287.59
2022-07-30T02:56:10.000Z,287.52
2022-07-30T02:58:16.000Z,287.59
2022-07-30T02:59:43.000Z,287.71
2022-07-30T03:01:49.000Z,287.65
2022-07-30T03:03:15.000Z,287.71
2022-07-30T03:05:22.000Z,287.65
2022-07-30T03:06:48.000Z,287.52
2022-07-30T03:08:54.000Z,287.59
2022-07-30T03:10:21.000Z,287.52
2022-07-30T03:12:27.000Z,287.46
2022-07-30T03:13:53.000Z,287.59
2022-07-30T03:15:59.000Z,287.59
2022-07-30T03:17:26.000Z,287.65
2022-07-30T03:19:32.000Z,287.71
2022-07-30T03:22:23.000Z,287.77
2022-07-30T03:23:55.000Z,287.71
2022-07-30T03:26:01.000Z,287.52
2022-07-30T03:27:28.000Z,287.46
2022-07-30T03:29:34.000Z,287.52
2022-07-30T03:31:00.000Z,287.52
2022-07-30T03:33:07.000Z,287.59
2022-07-30T03:34:33.000Z,287.65
2022-07-30T03:36:39.000Z,287.65
2022-07-30T03:38:06.000Z,287.59
2022-07-30T03:40:12.000Z,287.4
2022-07-30T03:41:38.000Z,287.4
2022-07-30T03:43:45.000Z,287.34
2022-07-30T03:45:11.000Z,287.4
2022-07-30T03:47:17.000Z,287.46
2022-07-30T03:48:44.000Z,287.52
2022-07-30T03:50:50.000Z,287.4
2022-07-30T03:52:16.000Z,287.4
2022-07-30T03:54:22.000Z,287.46
2022-07-30T03:55:49.000Z,287.46
2022-07-30T03:57:55.000Z,287.4
2022-07-30T04:00:46.000Z,287.46
2022-07-30T04:02:13.000Z,287.59
2022-07-30T04:04:19.000Z,287.59
2022-07-30T04:05:46.000Z,287.59
2022-07-30T04:07:52.000Z,287.52
2022-07-30T04:09:19.000Z,287.59
2022-07-30T04:11:25.000Z,287.59
2022-07-30T04:13:06.000Z,287.59
2022-07-30T04:15:13.000Z,287.52
2022-07-30T04:18:03.000Z,287.52
2022-07-30T04:20:09.000Z,287.52
2022-07-30T04:21:42.000Z,287.59
2022-07-30T04:23:48.000Z,287.65
2022-07-30T04:25:29.000Z,287.59
2022-07-30T04:27:35.000Z,287.34
2022-07-30T04:29:27.000Z,287.46
2022-07-30T04:31:33.000Z,287.52
2022-07-30T04:33:05.000Z,287.59
2022-07-30T04:35:11.000Z,287.71
2022-07-30T04:37:14.000Z,287.77
2022-07-30T04:39:21.000Z,287.9
2022-07-30T04:42:12.000Z,287.84
2022-07-30T04:43:38.000Z,287.77
2022-07-30T04:45:44.000Z,287.77
2022-07-30T04:47:11.000Z,287.77
2022-07-30T04:49:17.000Z,287.65
2022-07-30T04:50:44.000Z,287.52
2022-07-30T04:52:50.000Z,287.46
2022-07-30T04:54:17.000Z,287.71
2022-07-30T04:56:23.000Z,287.77
2022-07-30T04:57:49.000Z,287.84
2022-07-30T04:59:56.000Z,287.84
2022-07-30T05:01:22.000Z,287.96
2022-07-30T05:03:44.000Z,287.96
2022-07-30T05:05:11.000Z,287.9
2022-07-30T05:07:17.000Z,287.84
2022-07-30T05:08:47.000Z,287.84
2022-07-30T05:10:53.000Z,288.02
2022-07-30T05:12:19.000Z,288.15
2022-07-30T05:14:25.000Z,288.15
2022-07-30T05:15:52.000Z,288.02
2022-07-30T05:17:58.000Z,287.96
2022-07-30T05:20:50.000Z,288.21
2022-07-30T05:22:16.000Z,288.21
2022-07-30T05:24:22.000Z,288.15
2022-07-30T05:25:49.000Z,288.09
2022-07-30T05:27:55.000Z,288.21
2022-07-30T05:29:21.000Z,288.34
2022-07-30T05:31:28.000Z,288.34
2022-07-30T05:32:57.000Z,288.21
2022-07-30T05:35:07.000Z,288.21
2022-07-30T05:36:34.000Z,288.21
2022-07-30T05:38:40.000Z,288.34
2022-07-30T05:40:06.000Z,288.34
2022-07-30T05:42:12.000Z,288.27
2022-07-30T05:43:39.000Z,288.21
2022-07-30T05:45:45.000Z,288.34
2022-07-30T05:47:11.000Z,288.46
2022-07-30T05:49:18.000Z,288.65
2022-07-30T05:50:44.000Z,288.77
2022-07-30T05:52:50.000Z,288.9
2022-07-30T05:54:17.000Z,289.02
2022-07-30T05:56:23.000Z,288.96
2022-07-30T05:59:15.000Z,289.02
2022-07-30T06:00:41.000Z,289.21
2022-07-30T06:02:47.000Z,289.09
2022-07-30T06:04:14.000Z,289.15
2022-07-30T06:06:20.000Z,289.15
2022-07-30T06:07:47.000Z,289.15
2022-07-30T06:09:54.000Z,289.21
2022-07-30T06:11:20.000Z,289.34
2022-07-30T06:13:26.000Z,289.46
2022-07-30T06:14:53.000Z,289.65
2022-07-30T06:16:59.000Z,289.71
2022-07-30T06:18:26.000Z,289.71
2022-07-30T06:20:32.000Z,289.65
2022-07-30T06:21:59.000Z,289.71
2022-07-30T06:24:10.000Z,289.71
2022-07-30T06:25:37.000Z,289.65
2022-07-30T06:27:44.000Z,289.65
2022-07-30T06:29:11.000Z,289.52
2022-07-30T06:31:17.000Z,289.09
2022-07-30T06:32:44.000Z,289.02
2022-07-30T06:34:52.000Z,289.02
2022-07-30T06:37:53.000Z,289.21
2022-07-30T06:39:31.000Z,289.4
2022-07-30T06:42:02.000Z,289.4
2022-07-30T06:43:28.000Z,289.46
2022-07-30T06:45:34.000Z,289.4
2022-07-30T06:47:01.000Z,289.46
2022-07-30T06:49:12.000Z,289.52
2022-07-30T06:50:39.000Z,289.65
2022-07-30T06:52:45.000Z,289.9
2022-07-30T06:54:11.000Z,290.02
2022-07-30T06:56:17.000Z,290.15
2022-07-30T06:57:44.000Z,290.21
2022-07-30T06:59:50.000Z,290.15
2022-07-30T07:01:21.000Z,290.21
2022-07-30T07:03:28.000Z,290.27
2022-07-30T07:05:05.000Z,290.27
2022-07-30T07:07:11.000Z,290.02
2022-07-30T07:08:38.000Z,289.96
2022-07-30T07:10:44.000Z,290.15
2022-07-30T07:12:10.000Z,290.09
2022-07-30T07:14:17.000Z,290.15
2022-07-30T07:17:08.000Z,290.27
2022-07-30T07:18:34.000Z,290.4
2022-07-30T07:20:41.000Z,290.46
2022-07-30T07:22:07.000Z,290.4
2022-07-30T07:24:13.000Z,290.34
2022-07-30T07:25:40.000Z,290.34
2022-07-30T07:27:46.000Z,290.34
2022-07-30T07:29:37.000Z,290.52
2022-07-30T07:32:05.000Z,290.65
2022-07-30T07:33:32.000Z,290.65
2022-07-30T07:35:38.000Z,290.65
2022-07-30T07:37:14.000Z,290.71
2022-07-30T07:39:20.000Z,290.59
2022-07-30T07:40:47.000Z,290.59
2022-07-30T07:42:53.000Z,290.71
2022-07-30T07:44:20.000Z,290.84
2022-07-30T07:46:26.000Z,290.9
2022-07-30T07:47:58.000Z,290.84
2022-07-30T07:50:04.000Z,290.96
2022-07-30T07:51:31.000Z,291.02
2022-07-30T07:53:52.000Z,291.09
2022-07-30T07:57:10.000Z,291.02
2022-07-30T07:58:39.000Z,291.15
2022-07-30T08:00:45.000Z,291.21
2022-07-30T08:02:12.000Z,291.34
2022-07-30T08:04:18.000Z,291.4
2022-07-30T08:05:45.000Z,291.46
2022-07-30T08:08:10.000Z,291.46
2022-07-30T08:09:36.000Z,291.52
2022-07-30T08:11:49.000Z,291.59
2022-07-30T08:13:15.000Z,291.71
2022-07-30T08:15:56.000Z,291.77
2022-07-30T08:17:23.000Z,291.84
2022-07-30T08:19:29.000Z,292.15
2022-07-30T08:20:56.000Z,292.4
2022-07-30T08:23:02.000Z,292.71
2022-07-30T08:24:28.000Z,292.71
2022-07-30T08:26:35.000Z,292.71
2022-07-30T08:28:01.000Z,292.65
2022-07-30T08:30:07.000Z,292.77
2022-07-30T08:31:34.000Z,292.77
2022-07-30T08:33:40.000Z,292.84
2022-07-30T08:36:32.000Z,292.84
2022-07-30T08:37:58.000Z,293.02
2022-07-30T08:40:05.000Z,293.15
2022-07-30T08:41:31.000Z,293.27
2022-07-30T08:43:37.000Z,293.21
2022-07-30T08:45:04.000Z,293.21
2022-07-30T08:47:10.000Z,293.34
2022-07-30T08:48:37.000Z,293.4
2022-07-30T08:50:43.000Z,293.52
2022-07-30T08:52:09.000Z,293.59
2022-07-30T08:54:16.000Z,293.59
2022-07-30T08:55:42.000Z,293.65
2022-07-30T08:57:48.000Z,293.77
2022-07-30T08:59:15.000Z,293.77
2022-07-30T09:01:21.000Z,293.84
2022-07-30T09:02:47.000Z,293.84
2022-07-30T09:04:54.000Z,294.09
2022-07-30T09:06:20.000Z,294.02
2022-07-30T09:08:27.000Z,293.71
2022-07-30T09:09:53.000Z,293.84
2022-07-30T09:11:59.000Z,293.59
2022-07-30T09:14:51.000Z,293.84
2022-07-30T09:16:17.000Z,293.9
2022-07-30T09:18:23.000Z,293.9
2022-07-30T09:19:50.000Z,293.96
2022-07-30T09:21:56.000Z,293.77
2022-07-30T09:23:23.000Z,293.9
2022-07-30T09:25:29.000Z,294.21
2022-07-30T09:26:55.000Z,294.09
2022-07-30T09:29:01.000Z,294.15
2022-07-30T09:30:28.000Z,294.27
2022-07-30T09:32:36.000Z,294.27
2022-07-30T09:34:03.000Z,294.4
2022-07-30T09:36:09.000Z,294.4
2022-07-30T09:37:35.000Z,294.27
2022-07-30T09:39:41.000Z,294.46
2022-07-30T09:41:24.000Z,294.65
2022-07-30T09:43:43.000Z,294.71
2022-07-30T09:45:09.000Z,294.9
2022-07-30T09:47:15.000Z,294.9
2022-07-30T09:48:42.000Z,294.96
2022-07-30T09:50:48.000Z,295.02
2022-07-30T09:53:40.000Z,295.02
2022-07-30T09:55:06.000Z,295.09
2022-07-30T09:57:14.000Z,295.02
2022-07-30T09:58:50.000Z,295.02
2022-07-30T10:00:56.000Z,295.21
2022-07-30T10:02:24.000Z,295.4
2022-07-30T10:04:30.000Z,295.46
2022-07-30T10:05:57.000Z,295.4
2022-07-30T10:08:03.000Z,295.34
2022-07-30T10:09:41.000Z,295.34
2022-07-30T10:11:48.000Z,295.34
2022-07-30T10:13:15.000Z,295.46
2022-07-30T10:15:25.000Z,295.71
2022-07-30T10:16:52.000Z,295.4
2022-07-30T10:18:58.000Z,295.71
2022-07-30T10:20:24.000Z,295.84
2022-07-30T10:22:31.000Z,295.77
2022-07-30T10:23:58.000Z,295.9
2022-07-30T10:26:04.000Z,295.9
2022-07-30T10:27:32.000Z,296.02
2022-07-30T10:29:38.000Z,296.21
2022-07-30T10:32:32.000Z,296.02
2022-07-30T10:33:58.000Z,295.9
2022-07-30T10:36:04.000Z,295.59
2022-07-30T10:37:33.000Z,295.4
2022-07-30T10:39:40.000Z,295.27
2022-07-30T10:41:07.000Z,295.34
2022-07-30T10:43:13.000Z,295.71
2022-07-30T10:44:40.000Z,295.96
2022-07-30T10:46:46.000Z,296.34
2022-07-30T10:48:13.000Z,296.52
2022-07-30T10:50:19.000Z,296.52
2022-07-30T10:51:47.000Z,296.71
2022-07-30T10:53:53.000Z,296.59
2022-07-30T10:55:20.000Z,296.4
2022-07-30T10:59:16.000Z,296.15
2022-07-30T10:59:49.000Z,296.09
2022-07-30T11:01:16.000Z,296.02
2022-07-30T11:03:23.000Z,295.96
2022-07-30T11:05:06.000Z,295.84
2022-07-30T11:07:12.000Z,295.77
2022-07-30T11:08:42.000Z,295.71
2022-07-30T11:10:48.000Z,295.71
2022-07-30T11:13:33.000Z,295.65
2022-07-30T11:15:02.000Z,295.84
2022-07-30T11:17:23.000Z,296.27
2022-07-30T11:18:49.000Z,296.4
2022-07-30T11:21:55.000Z,296.52
2022-07-30T11:23:22.000Z,296.65
2022-07-30T11:25:29.000Z,296.65
2022-07-30T11:27:15.000Z,296.65
2022-07-30T11:29:21.000Z,296.52
2022-07-30T11:30:57.000Z,296.65
2022-07-30T11:33:04.000Z,296.9
2022-07-30T11:34:30.000Z,296.77
2022-07-30T11:36:37.000Z,296.9
2022-07-30T11:38:11.000Z,296.96
2022-07-30T11:40:18.000Z,297.09
2022-07-30T11:41:51.000Z,296.96
2022-07-30T11:43:57.000Z,297.15
2022-07-30T11:45:23.000Z,297.34
2022-07-30T11:47:29.000Z,297.4
2022-07-30T11:48:56.000Z,297.46
2022-07-30T11:51:02.000Z,297.77
2022-07-30T11:53:54.000Z,297.71
2022-07-30T11:55:20.000Z,297.84
2022-07-30T11:57:26.000Z,298.02
2022-07-30T11:59:02.000Z,298.21
2022-07-30T12:01:09.000Z,297.84
2022-07-30T12:02:35.000Z,297.65
2022-07-30T12:04:41.000Z,297.52
2022-07-30T12:06:08.000Z,297.21
2022-07-30T12:08:14.000Z,297.27
2022-07-30T12:10:00.000Z,297.15
2022-07-30T12:12:07.000Z,297.21
2022-07-30T12:13:34.000Z,297.21
2022-07-30T12:15:50.000Z,297.65
2022-07-30T12:17:16.000Z,297.77
2022-07-30T12:19:25.000Z,297.77
2022-07-30T12:20:51.000Z,297.59
2022-07-30T12:22:58.000Z,297.71
2022-07-30T12:24:24.000Z,297.71
2022-07-30T12:26:31.000Z,297.71
2022-07-30T12:27:57.000Z,298.09
2022-07-30T12:30:03.000Z,298.27
2022-07-30T12:32:55.000Z,298.46
2022-07-30T12:34:21.000Z,298.21
2022-07-30T12:36:27.000Z,298.21
2022-07-30T12:37:54.000Z,298.59
2022-07-30T12:40:00.000Z,298.84
2022-07-30T12:41:27.000Z,298.71
2022-07-30T12:43:33.000Z,298.9
2022-07-30T12:44:59.000Z,298.77
2022-07-30T12:47:05.000Z,298.84
2022-07-30T12:48:32.000Z,298.77
2022-07-30T12:50:38.000Z,298.46
2022-07-30T12:52:05.000Z,298.4
2022-07-30T12:54:17.000Z,298.46
2022-07-30T12:55:44.000Z,298.52
2022-07-30T12:57:50.000Z,298.21
2022-07-30T12:59:16.000Z,298.4
2022-07-30T13:01:23.000Z,298.65
2022-07-30T13:02:49.000Z,298.59
2022-07-30T13:04:55.000Z,298.71
2022-07-30T13:06:36.000Z,298.71
2022-07-30T13:08:42.000Z,298.52
2022-07-30T13:11:33.000Z,298.46
2022-07-30T13:12:59.000Z,298.52
2022-07-30T13:15:06.000Z,298.15
2022-07-30T13:16:32.000Z,298.15
2022-07-30T13:18:38.000Z,298.27
2022-07-30T13:20:05.000Z,298.09
2022-07-30T13:22:11.000Z,298.27
2022-07-30T13:23:38.000Z,298.15
2022-07-30T13:25:44.000Z,298.02
2022-07-30T13:27:10.000Z,297.9
2022-07-30T13:29:17.000Z,297.77
2022-07-30T13:30:43.000Z,297.77
2022-07-30T13:32:49.000Z,297.77
2022-07-30T13:34:16.000Z,298.09
2022-07-30T13:36:22.000Z,298.34
2022-07-30T13:37:48.000Z,298.34
2022-07-30T13:39:55.000Z,298.21
2022-07-30T13:41:21.000Z,298.27
2022-07-30T13:43:27.000Z,298.09
2022-07-30T13:44:58.000Z,297.96
2022-07-30T13:47:04.000Z,297.9
2022-07-30T13:49:56.000Z,298.02
2022-07-30T13:51:22.000Z,298.34
2022-07-30T13:53:29.000Z,298.71
2022-07-30T13:54:55.000Z,298.9
2022-07-30T13:57:01.000Z,298.96
2022-07-30T13:58:28.000Z,298.96
2022-07-30T14:00:40.000Z,299.15
2022-07-30T14:02:06.000Z,299.27
2022-07-30T14:04:12.000Z,299.09
2022-07-30T14:05:39.000Z,298.84
2022-07-30T14:07:46.000Z,298.34
2022-07-30T14:09:13.000Z,298.34
2022-07-30T14:11:19.000Z,298.34
2022-07-30T14:12:45.000Z,298.46
2022-07-30T14:14:52.000Z,298.59
2022-07-30T14:16:18.000Z,298.84
2022-07-30T14:18:48.000Z,298.96
2022-07-30T14:20:15.000Z,299.15
2022-07-30T14:22:21.000Z,299.09
2022-07-30T14:23:47.000Z,299.21
2022-07-30T14:25:54.000Z,299.27
2022-07-30T14:28:45.000Z,299.09
2022-07-30T14:30:11.000Z,298.96
2022-07-30T14:32:18.000Z,298.84
2022-07-30T14:33:47.000Z,299.02
2022-07-30T14:35:54.000Z,299.4
2022-07-30T14:37:20.000Z,299.46
2022-07-30T14:39:26.000Z,299.46
2022-07-30T14:40:53.000Z,299.52
2022-07-30T14:42:59.000Z,299.4
2022-07-30T14:44:26.000Z,299.34
2022-07-30T14:46:32.000Z,299.21
2022-07-30T14:47:58.000Z,299.27
2022-07-30T14:50:06.000Z,299.09
2022-07-30T14:51:32.000Z,299.09
2022-07-30T14:53:39.000Z,298.77
2022-07-30T14:55:05.000Z,298.84
2022-07-30T14:57:11.000Z,298.71
2022-07-30T14:58:38.000Z,298.77
2022-07-30T15:00:44.000Z,298.71
2022-07-30T15:02:13.000Z,298.65
2022-07-30T15:04:19.000Z,298.4
2022-07-30T15:07:11.000Z,298.52
2022-07-30T15:08:37.000Z,298.59
2022-07-30T15:10:43.000Z,298.46
2022-07-30T15:12:10.000Z,298.52
2022-07-30T15:14:19.000Z,298.65
2022-07-30T15:15:48.000Z,298.65
2022-07-30T15:17:54.000Z,298.52
2022-07-30T15:19:21.000Z,298.59
2022-07-30T15:21:27.000Z,298.65
2022-07-30T15:22:53.000Z,298.84
2022-07-30T15:25:00.000Z,298.96
2022-07-30T15:26:26.000Z,298.9
2022-07-30T15:28:32.000Z,298.71
2022-07-30T15:29:59.000Z,298.77
2022-07-30T15:32:05.000Z,298.77
2022-07-30T15:33:32.000Z,298.84
2022-07-30T15:35:41.000Z,298.9
2022-07-30T15:37:07.000Z,298.9
2022-07-30T15:39:14.000Z,298.71
2022-07-30T15:40:40.000Z,298.65
2022-07-30T15:42:46.000Z,298.59
2022-07-30T15:45:38.000Z,298.46
2022-07-30T15:47:20.000Z,298.46
2022-07-30T15:49:27.000Z,298.15
2022-07-30T15:50:53.000Z,298.15
2022-07-30T15:52:59.000Z,298.34
2022-07-30T15:54:32.000Z,298.4
2022-07-30T15:56:38.000Z,298.09
2022-07-30T15:58:05.000Z,298.02
2022-07-30T16:00:11.000Z,298.15
2022-07-30T16:01:37.000Z,298.09
2022-07-30T16:03:43.000Z,298.09
2022-07-30T16:05:10.000Z,298.02
2022-07-30T16:07:18.000Z,298.02
2022-07-30T16:08:45.000Z,297.9
2022-07-30T16:10:51.000Z,297.84
2022-07-30T16:12:17.000Z,297.84
2022-07-30T16:14:23.000Z,297.9
2022-07-30T16:15:50.000Z,297.84
2022-07-30T16:17:56.000Z,297.77
2022-07-30T16:19:23.000Z,297.77
2022-07-30T16:21:29.000Z,297.77
2022-07-30T16:24:20.000Z,297.65
2022-07-30T16:25:47.000Z,297.59
2022-07-30T16:27:53.000Z,297.59
2022-07-30T16:29:19.000Z,297.59
2022-07-30T16:31:26.000Z,297.52
2022-07-30T16:32:52.000Z,297.46
2022-07-30T16:34:58.000Z,297.46
2022-07-30T16:36:25.000Z,297.46
2022-07-30T16:38:31.000Z,297.4
2022-07-30T16:39:58.000Z,297.4
2022-07-30T16:42:04.000Z,297.27
2022-07-30T16:43:30.000Z,297.27
2022-07-30T16:45:37.000Z,297.34
2022-07-30T16:47:03.000Z,297.27
2022-07-30T16:49:13.000Z,297.21
2022-07-30T16:50:40.000Z,297.21
2022-07-30T16:52:46.000Z,297.21
2022-07-30T16:54:13.000Z,297.21
2022-07-30T16:56:19.000Z,297.15
2022-07-30T16:57:45.000Z,297.02
2022-07-30T16:59:51.000Z,297.21
2022-07-30T17:02:42.000Z,297.15
2022-07-30T17:04:09.000Z,297.34
2022-07-30T17:06:15.000Z,297.4
2022-07-30T17:07:42.000Z,297.27
2022-07-30T17:09:48.000Z,297.27
2022-07-30T17:11:17.000Z,297.15
2022-07-30T17:13:52.000Z,297.21
2022-07-30T17:15:18.000Z,297.21
2022-07-30T17:17:37.000Z,297.21
2022-07-30T17:19:03.000Z,297.09
2022-07-30T17:21:13.000Z,297.02
2022-07-30T17:22:40.000Z,296.96
2022-07-30T17:24:47.000Z,296.96
2022-07-30T17:26:13.000Z,296.9
2022-07-30T17:28:20.000Z,296.84
2022-07-30T17:29:51.000Z,296.84
2022-07-30T17:31:57.000Z,296.84
2022-07-30T17:33:25.000Z,296.84
2022-07-30T17:35:31.000Z,296.71
2022-07-30T17:36:58.000Z,296.71
2022-07-30T17:39:05.000Z,296.65
2022-07-30T17:41:58.000Z,296.52
2022-07-30T17:43:27.000Z,296.46
2022-07-30T17:45:33.000Z,296.34
2022-07-30T17:47:00.000Z,296.52
2022-07-30T17:49:07.000Z,296.59
2022-07-30T17:50:34.000Z,296.52
2022-07-30T17:52:40.000Z,296.46
2022-07-30T17:54:06.000Z,296.4
2022-07-30T17:56:12.000Z,296.4
2022-07-30T17:57:51.000Z,296.4
2022-07-30T17:59:57.000Z,296.34
2022-07-30T18:01:25.000Z,296.15
2022-07-30T18:03:32.000Z,296.21
2022-07-30T18:04:58.000Z,296.15
2022-07-30T18:07:05.000Z,296.02
2022-07-30T18:08:31.000Z,295.96
2022-07-30T18:10:37.000Z,295.84
2022-07-30T18:12:04.000Z,295.77
2022-07-30T18:14:11.000Z,295.71
2022-07-30T18:15:37.000Z,295.65
2022-07-30T18:17:43.000Z,295.71
2022-07-30T18:20:34.000Z,295.59
2022-07-30T18:22:12.000Z,295.52
2022-07-30T18:24:19.000Z,295.59
2022-07-30T18:25:49.000Z,295.52
2022-07-30T18:27:58.000Z,295.52
2022-07-30T18:29:25.000Z,295.59
2022-07-30T18:31:31.000Z,295.52
2022-07-30T18:32:58.000Z,295.4
2022-07-30T18:35:04.000Z,295.15
2022-07-30T18:36:36.000Z,294.96
2022-07-30T18:38:42.000Z,294.84
2022-07-30T18:40:09.000Z,294.71
2022-07-30T18:42:15.000Z,294.65
2022-07-30T18:43:42.000Z,294.65
2022-07-30T18:45:52.000Z,294.52
2022-07-30T18:47:19.000Z,294.46
2022-07-30T18:49:25.000Z,294.4
2022-07-30T18:51:01.000Z,294.27
2022-07-30T18:53:07.000Z,294.09
2022-07-30T18:54:40.000Z,294.02
2022-07-30T18:56:46.000Z,294.09
2022-07-30T18:59:37.000Z,293.9
2022-07-30T19:01:04.000Z,293.71
2022-07-30T19:03:10.000Z,293.59
2022-07-30T19:04:43.000Z,293.52
2022-07-30T19:06:49.000Z,293.4
2022-07-30T19:08:15.000Z,293.27
2022-07-30T19:10:21.000Z,293.15
2022-07-30T19:11:50.000Z,293.09
2022-07-30T19:13:57.000Z,292.96
2022-07-30T19:15:23.000Z,292.84
2022-07-30T19:17:29.000Z,292.84
2022-07-30T19:19:11.000Z,292.77
2022-07-30T19:21:17.000Z,292.65
2022-07-30T19:22:44.000Z,292.59
2022-07-30T19:24:50.000Z,292.52
2022-07-30T19:26:16.000Z,292.46
2022-07-30T19:28:23.000Z,292.34
2022-07-30T19:29:49.000Z,292.34
2022-07-30T19:31:55.000Z,292.21
2022-07-30T19:33:22.000Z,292.09
2022-07-30T19:35:28.000Z,292.02
2022-07-30T19:38:19.000Z,291.84
2022-07-30T19:39:48.000Z,291.77
2022-07-30T19:42:10.000Z,291.71
2022-07-30T19:43:38.000Z,291.65
2022-07-30T19:45:44.000Z,291.59
2022-07-30T19:47:12.000Z,291.52
2022-07-30T19:49:20.000Z,291.4
2022-07-30T19:50:53.000Z,291.4
2022-07-30T19:53:00.000Z,291.34
2022-07-30T19:54:26.000Z,291.21
2022-07-30T19:56:33.000Z,291.15
2022-07-30T19:58:02.000Z,291.09
2022-07-30T20:00:08.000Z,291.09
2022-07-30T20:01:35.000Z,291.09
2022-07-30T20:03:45.000Z,290.96
2022-07-30T20:05:12.000Z,290.9
2022-07-30T20:07:18.000Z,290.9
2022-07-30T20:08:45.000Z,290.77
2022-07-30T20:10:52.000Z,290.77
2022-07-30T20:39:42.000Z,290.27
2022-07-30T20:41:09.000Z,290.21
2022-07-30T20:43:18.000Z,290.09
2022-07-30T20:44:45.000Z,290.02
2022-07-30T20:46:53.000Z,290.02
2022-07-30T20:48:24.000Z,289.96
2022-07-30T20:50:30.000Z,290.15
2022-07-30T20:51:57.000Z,290.15
2022-07-30T20:54:03.000Z,290.09
2022-07-30T20:55:31.000Z,290.02
2022-07-30T20:57:37.000Z,289.96
2022-07-30T20:59:27.000Z,289.84
2022-07-30T21:01:33.000Z,289.59
2022-07-30T21:03:00.000Z,289.46
2022-07-30T21:05:07.000Z,289.46
2022-07-30T21:06:38.000Z,289.59
2022-07-30T21:08:44.000Z,289.52
2022-07-30T21:10:11.000Z,289.59
2022-07-30T21:12:18.000Z,289.59
2022-07-30T21:36:40.000Z,289.71
2022-07-30T21:38:07.000Z,289.77
2022-07-30T21:40:13.000Z,289.71
2022-07-30T21:41:41.000Z,289.71
2022-07-30T21:43:47.000Z,289.59
2022-07-30T21:45:13.000Z,289.59
2022-07-30T21:47:19.000Z,289.65
2022-07-30T21:48:46.000Z,289.59
2022-07-30T21:50:56.000Z,289.46
2022-07-30T21:52:23.000Z,289.46
2022-07-30T21:54:29.000Z,289.46
2022-07-30T21:56:10.000Z,289.4
2022-07-30T21:58:16.000Z,289.46
2022-07-30T21:59:50.000Z,289.59
2022-07-30T22:01:59.000Z,289.46
2022-07-30T22:03:26.000Z,289.46
2022-07-30T22:06:11.000Z,289.46
2022-07-30T22:07:38.000Z,289.46
2022-07-30T22:09:44.000Z,289.4
2022-07-30T22:11:11.000Z,289.4
2022-07-30T22:13:18.000Z,289.34
2022-07-30T22:16:11.000Z,289.27
2022-07-30T22:17:38.000Z,289.4
2022-07-30T22:20:02.000Z,289.4
2022-07-30T22:21:33.000Z,289.34
2022-07-30T22:23:39.000Z,289.34
2022-07-30T22:25:22.000Z,289.34
2022-07-30T22:27:47.000Z,289.34
2022-07-30T22:29:21.000Z,289.4
2022-07-30T22:31:27.000Z,289.34
2022-07-30T22:33:04.000Z,289.4
2022-07-30T22:35:10.000Z,289.46
2022-07-30T22:36:40.000Z,289.46
2022-07-30T22:38:49.000Z,289.46
2022-07-30T22:40:23.000Z,289.46
2022-07-30T22:42:30.000Z,289.4
2022-07-30T22:44:01.000Z,289.46
2022-07-30T22:46:07.000Z,289.4
2022-07-30T22:47:55.000Z,289.4
2022-07-30T22:50:01.000Z,289.34
2022-07-30T22:51:28.000Z,289.4
2022-07-30T22:54:14.000Z,289.46
2022-07-30T22:57:05.000Z,289.46
2022-07-30T22:58:32.000Z,289.4
2022-07-30T23:00:38.000Z,289.34
2022-07-30T23:02:05.000Z,289.34
2022-07-30T23:04:16.000Z,289.34
2022-07-30T23:05:43.000Z,289.4
2022-07-30T23:08:00.000Z,289.4
2022-07-30T23:09:27.000Z,289.46
2022-07-30T23:11:53.000Z,289.27
2022-07-30T23:13:20.000Z,289.34
2022-07-30T23:15:26.000Z,289.27
2022-07-30T23:16:53.000Z,289.34
2022-07-30T23:18:59.000Z,289.34
2022-07-30T23:20:26.000Z,289.4
2022-07-30T23:22:32.000Z,289.34
2022-07-30T23:23:58.000Z,289.34
2022-07-30T23:26:05.000Z,289.21
2022-07-30T23:27:31.000Z,289.21
2022-07-30T23:29:37.000Z,289.21
2022-07-30T23:31:04.000Z,289.15
2022-07-30T23:33:10.000Z,289.15
2022-07-30T23:36:01.000Z,289.21
2022-07-30T23:37:28.000Z,289.15
2022-07-30T23:39:52.000Z,289.02
2022-07-30T23:41:19.000Z,289.09
2022-07-30T23:43:34.000Z,289.09
2022-07-30T23:45:01.000Z,289.09
2022-07-30T23:47:07.000Z,288.96
2022-07-30T23:48:33.000Z,288.9
2022-07-30T23:50:39.000Z,288.96
2022-07-30T23:52:06.000Z,288.96
2022-07-30T23:54:12.000Z,288.9
2022-07-30T23:55:39.000Z,288.9
2022-07-30T23:57:45.000Z,288.77
2022-07-30T23:59:11.000Z,288.84
